Weather at Brawley Municipal Airport

Public forecast

Using degrees Fahrenheit for public forecast. Weather courtesy of forecast.io.

Closest aviation weather report (METAR) to Brawley Municipal Airport

Closest report is Imperial County Airport, 10.0 nm (18.6 km) SSW. Retrieved 2020/11/30 15:53 UTC (51 minutes ago):

KIPL 301553Z AUTO 00000KT 10SM CLR 10/M04 A3019 RMK AO2 SLP222 T01001044

Closest aviation forecast (TAF) to Brawley Municipal Airport

Closest forecast is Imperial County Airport, 10.0 nm (18.6 km) SSW. Retrieved 2020/11/30 12:39 UTC (4 hours ago):

TAF KIPL 301136Z 3012/0112 27004KT P6SM BKN250 FM301500 VRB04KT P6SM BKN200 FM301900 02004KT P6SM FEW200 FM010400 27004KT P6SM SKC